Strona główna
METAR-TAF:

METAR-TAF

Lotnisko :

Vojens, Dania

Szerokość geograficzna: 55-14N, Długość geograficzna: 009-16E, wysokość: 43 m

Aktualna obserwacja pogody

Raport powstał 24 minut temu, godzina 18:20 UTC
Wiatr 4 kt od południowy zachód
Temperatura 16°C
Wilgotność 77%
Ciśnienie 1027 hPa
Widzialność 10 km lub więcej
Mało chmury na wysokości 3500 ft

METAR: EKSP 211820Z 23004KT 9999 FEW035 16/12 Q1027

czas: 20:44 (18:44 UTC)

Prognoza

Raport powstał 1 godzina i 26 minut temu, godzina 17:18 UTC
Prognoza ważna od 21 godzina 18 UTC do 22 godzina 18 UTC
Wiatr 8 kt od zachodnio-południowy zachód
Widzialność 10 km lub więcej
Rozproszone chmury na wysokości 3000 ft
Stopniowe zmiany
od 21 godzina 18 UTC do 21 godzina 20 UTC
Wiatr 8 kt od południowo-południowy zachód
Przejściowo
od 22 godzina 09 UTC do 22 godzina 15 UTC
Wiatr 12 kt od południowo-południowy zachód w porywach dochodzący do 25 kt

TAF: EKSP 211718Z 2118/2218 25008KT 9999 SCT030 BECMG 2118/2120 20008KT TEMPO 2209/2215 20012G25KT

Obserwacja i prognoza pogody dla ponad 4000 lotnisk (raport METAR i TAF).

Dostępne stacje oznaczono żółtymi i czerwonymi punktami na mapie.

Najedź kursorem aby zobaczyć nazwę stacji.

Kliknij aby zobaczyć obserwacje i prognozy pogody.

Aby zmienić mapę: kliknij na zielony przycisk z czarnym krzyżykiem, aby powiększyć; na zielony przycisk z myślnikiem, aby pomniejszyć; na zielone strzałki, aby przejść do map sąsiednich.


METAR-TAF: